Time;durP1;ratioP1;P1;durP2;ratioP2;P2;SDS_P1;SDS_P2;PMS_P1;PMS_P2;Temp;Humidity;BMP_temperature;BMP_pressure;BME280_temperature;BME280_humidity;BME280_pressure;Samples;Min_cycle;Max_cycle;Signal;HPM_P1;HPM_P2
2023/01/30 00:01:41;;;;;;;50.08;24.88;;;;;;;;;;5132800;27;20221;-65
2023/01/30 00:04:08;;;;;;;38.88;22.85;;;;;;;;;;5113830;28;20673;-64
2023/01/30 00:06:35;;;;;;;41.00;21.45;;;;;;;;;;5114214;28;20231;-65
2023/01/30 00:09:02;;;;;;;39.47;19.08;;;;;;;;;;5114442;28;20197;-65
2023/01/30 00:11:32;;;;;;;43.72;21.30;;;;;;;;;;5115154;27;20197;-65
2023/01/30 00:13:59;;;;;;;44.35;22.42;;;;;;;;;;5129619;27;20195;-65
2023/01/30 00:16:28;;;;;;;46.88;25.65;;;;;;;;;;5133260;27;20209;-66
2023/01/30 00:18:55;;;;;;;46.75;25.55;;;;;;;;;;5132991;27;20198;-65
2023/01/30 00:21:22;;;;;;;52.08;26.58;;;;;;;;;;5133208;27;20679;-65
2023/01/30 00:23:49;;;;;;;48.47;26.08;;;;;;;;;;5133639;28;20706;-65
2023/01/30 00:26:16;;;;;;;46.15;27.25;;;;;;;;;;5133816;28;20210;-65
2023/01/30 00:28:44;;;;;;;49.50;28.60;;;;;;;;;;5133691;28;20189;-66
2023/01/30 00:31:11;;;;;;;38.90;23.40;;;;;;;;;;5133827;28;20199;-65
2023/01/30 00:33:40;;;;;;;49.65;25.65;;;;;;;;;;5134579;27;20201;-65
2023/01/30 00:36:07;;;;;;;50.70;26.52;;;;;;;;;;5138256;27;20205;-65
2023/01/30 00:38:35;;;;;;;49.40;26.70;;;;;;;;;;5138247;27;20195;-66
2023/01/30 00:41:02;;;;;;;41.67;22.08;;;;;;;;;;5138163;27;20225;-65
2023/01/30 00:49:01;;;;;;;43.67;24.58;;;;;;;;;;5106330;27;20194;-65
2023/01/30 00:51:28;;;;;;;43.60;24.85;;;;;;;;;;5138351;27;20549;-65
2023/01/30 00:53:55;;;;;;;30.33;20.80;;;;;;;;;;5138716;27;20196;-65
2023/01/30 00:56:23;;;;;;;43.25;23.63;;;;;;;;;;5137794;27;20195;-65
2023/01/30 00:58:50;;;;;;;43.58;25.13;;;;;;;;;;5138210;27;20181;-65
2023/01/30 01:01:17;;;;;;;45.33;24.27;;;;;;;;;;5134691;27;20219;-65
2023/01/30 01:03:44;;;;;;;46.03;26.40;;;;;;;;;;5119781;27;20221;-66
2023/01/30 01:06:13;;;;;;;42.95;24.00;;;;;;;;;;5117948;28;20201;-65
2023/01/30 01:08:40;;;;;;;48.30;26.90;;;;;;;;;;5120013;27;20277;-66
2023/01/30 01:11:07;;;;;;;53.40;27.00;;;;;;;;;;5117436;28;20203;-65
2023/01/30 01:13:34;;;;;;;43.42;23.63;;;;;;;;;;5117107;28;20218;-65
2023/01/30 01:16:02;;;;;;;46.22;24.40;;;;;;;;;;5117022;28;20193;-64
2023/01/30 01:18:29;;;;;;;49.47;23.77;;;;;;;;;;5117355;28;20198;-64
2023/01/30 01:20:56;;;;;;;46.15;25.08;;;;;;;;;;5116962;28;20682;-65
2023/01/30 01:23:24;;;;;;;53.35;26.38;;;;;;;;;;5117318;28;20225;-64
2023/01/30 01:25:52;;;;;;;44.47;25.88;;;;;;;;;;5116831;28;20196;-65
2023/01/30 01:28:21;;;;;;;51.13;27.60;;;;;;;;;;5116712;28;20196;-64
2023/01/30 01:30:48;;;;;;;48.60;25.50;;;;;;;;;;5117018;28;20198;-65
2023/01/30 01:33:15;;;;;;;46.10;24.80;;;;;;;;;;5117076;28;20656;-64
2023/01/30 01:35:42;;;;;;;45.97;26.20;;;;;;;;;;5116967;28;20264;-64
2023/01/30 01:38:10;;;;;;;47.75;25.48;;;;;;;;;;5117003;28;20190;-64
2023/01/30 01:43:24;;;;;;;45.17;25.75;;;;;;;;;;5122912;27;20551;-64
2023/01/30 01:45:53;;;;;;;40.83;23.25;;;;;;;;;;5136079;27;20188;-64
2023/01/30 01:48:23;;;;;;;50.60;23.27;;;;;;;;;;5137283;27;20197;-64
2023/01/30 01:50:52;;;;;;;39.25;19.73;;;;;;;;;;5136986;27;20634;-64
2023/01/30 01:53:22;;;;;;;35.17;20.63;;;;;;;;;;5137193;27;20192;-64
2023/01/30 01:55:53;;;;;;;46.70;26.38;;;;;;;;;;5136761;27;20200;-65
2023/01/30 01:58:23;;;;;;;46.53;23.75;;;;;;;;;;5118965;27;20564;-64
2023/01/30 02:00:51;;;;;;;41.55;20.67;;;;;;;;;;5116688;28;20222;-64
2023/01/30 02:03:21;;;;;;;51.50;26.30;;;;;;;;;;5096614;28;20199;-64
2023/01/30 02:05:50;;;;;;;33.13;21.33;;;;;;;;;;5096019;28;20193;-65
2023/01/30 02:08:18;;;;;;;46.92;24.35;;;;;;;;;;5095880;28;20193;-65
2023/01/30 02:10:49;;;;;;;38.13;22.73;;;;;;;;;;5097850;28;20197;-64
2023/01/30 02:13:18;;;;;;;41.90;23.88;;;;;;;;;;5095916;28;20281;-65
2023/01/30 02:15:45;;;;;;;46.70;24.10;;;;;;;;;;5095708;28;20199;-65
2023/01/30 02:18:13;;;;;;;34.05;20.10;;;;;;;;;;5095822;28;20190;-65
2023/01/30 02:20:58;;;;;;;47.33;23.52;;;;;;;;;;5096115;28;20195;-64
2023/01/30 02:23:35;;;;;;;48.45;27.08;;;;;;;;;;5095439;28;20186;-65
2023/01/30 02:26:17;;;;;;;48.13;25.25;;;;;;;;;;5095352;28;20653;-65
2023/01/30 02:29:14;;;;;;;45.22;23.73;;;;;;;;;;5093660;28;20194;-64
2023/01/30 02:31:45;;;;;;;34.03;19.05;;;;;;;;;;5032944;28;20205;-64
2023/01/30 02:34:18;;;;;;;47.13;24.55;;;;;;;;;;5082070;28;20559;-64
2023/01/30 02:36:52;;;;;;;43.42;25.30;;;;;;;;;;5095218;28;20633;-64
2023/01/30 02:39:26;;;;;;;49.95;25.92;;;;;;;;;;5095091;28;20184;-64
2023/01/30 02:41:58;;;;;;;55.58;26.80;;;;;;;;;;5094933;28;20672;-64
2023/01/30 02:44:28;;;;;;;49.45;28.23;;;;;;;;;;5095495;28;20569;-64
2023/01/30 02:46:58;;;;;;;54.05;25.50;;;;;;;;;;5095072;28;20196;-64
2023/01/30 02:49:28;;;;;;;53.00;27.95;;;;;;;;;;5095641;28;20530;-65
2023/01/30 02:51:57;;;;;;;52.85;28.33;;;;;;;;;;5095187;28;20191;-65
2023/01/30 02:54:24;;;;;;;47.78;25.65;;;;;;;;;;5095072;28;20291;-65
2023/01/30 02:56:52;;;;;;;48.47;28.85;;;;;;;;;;5100555;28;20695;-64
2023/01/30 02:59:22;;;;;;;52.13;28.70;;;;;;;;;;5115052;28;20195;-64
2023/01/30 03:02:09;;;;;;;45.50;28.02;;;;;;;;;;5117906;27;20210;-65
2023/01/30 03:04:50;;;;;;;42.95;22.13;;;;;;;;;;5115009;28;20189;-64
2023/01/30 03:07:23;;;;;;;39.10;23.40;;;;;;;;;;5115175;28;20182;-65
2023/01/30 03:09:53;;;;;;;47.15;26.65;;;;;;;;;;5115318;27;20198;-65
2023/01/30 03:12:24;;;;;;;42.70;21.77;;;;;;;;;;5115186;28;20199;-64
2023/01/30 03:14:53;;;;;;;43.25;24.35;;;;;;;;;;5115120;28;20185;-64
2023/01/30 03:17:23;;;;;;;35.80;20.70;;;;;;;;;;5114918;28;20195;-68
2023/01/30 03:19:51;;;;;;;38.70;21.00;;;;;;;;;;5115432;28;20183;-65
2023/01/30 03:22:18;;;;;;;38.83;23.75;;;;;;;;;;5114752;28;20224;-65
2023/01/30 03:24:45;;;;;;;43.35;25.30;;;;;;;;;;5115061;28;20189;-64
2023/01/30 03:27:13;;;;;;;51.05;26.10;;;;;;;;;;5114687;28;20284;-65
2023/01/30 03:29:40;;;;;;;32.92;20.63;;;;;;;;;;5114967;28;20199;-65
2023/01/30 03:32:08;;;;;;;37.05;22.35;;;;;;;;;;5114370;28;20653;-65
2023/01/30 03:34:36;;;;;;;50.08;24.80;;;;;;;;;;5114734;28;20303;-65
2023/01/30 03:37:04;;;;;;;28.38;16.15;;;;;;;;;;5114259;28;20200;-65
2023/01/30 03:39:31;;;;;;;43.10;25.95;;;;;;;;;;5114529;28;20651;-64
2023/01/30 03:41:58;;;;;;;39.63;23.48;;;;;;;;;;5114403;28;20217;-64
2023/01/30 03:44:26;;;;;;;37.45;21.15;;;;;;;;;;5114189;28;20195;-65
2023/01/30 03:46:53;;;;;;;38.03;21.33;;;;;;;;;;5114401;28;20225;-65
2023/01/30 03:49:20;;;;;;;24.92;16.70;;;;;;;;;;5114443;28;20231;-65
2023/01/30 03:51:49;;;;;;;44.15;25.30;;;;;;;;;;5114599;28;20677;-64
2023/01/30 03:54:16;;;;;;;36.70;23.88;;;;;;;;;;5114457;28;20199;-65
2023/01/30 03:56:43;;;;;;;39.67;22.27;;;;;;;;;;5113825;28;20270;-64
2023/01/30 03:59:10;;;;;;;34.83;22.02;;;;;;;;;;5114019;28;20194;-64
2023/01/30 04:01:37;;;;;;;35.95;16.40;;;;;;;;;;5115361;27;20215;-65
2023/01/30 04:04:05;;;;;;;33.55;19.90;;;;;;;;;;5114574;28;20186;-65
2023/01/30 04:06:32;;;;;;;32.30;19.10;;;;;;;;;;5114139;28;20560;-65
2023/01/30 04:09:00;;;;;;;34.90;19.90;;;;;;;;;;5113967;28;20192;-65
2023/01/30 04:11:28;;;;;;;37.75;21.13;;;;;;;;;;5114063;28;20200;-65
2023/01/30 04:13:55;;;;;;;32.83;20.00;;;;;;;;;;5113754;28;20202;-65
2023/01/30 04:16:23;;;;;;;35.28;19.95;;;;;;;;;;5113685;28;20667;-65
2023/01/30 04:18:50;;;;;;;35.85;20.65;;;;;;;;;;5114607;28;20196;-64
2023/01/30 04:21:17;;;;;;;33.20;19.98;;;;;;;;;;5113641;28;20198;-65
2023/01/30 04:23:45;;;;;;;32.38;20.85;;;;;;;;;;5113927;28;20214;-65
2023/01/30 04:26:14;;;;;;;28.38;18.30;;;;;;;;;;5114263;28;20202;-65
2023/01/30 04:28:41;;;;;;;24.52;16.25;;;;;;;;;;5113526;28;20191;-65
2023/01/30 04:31:08;;;;;;;22.67;13.93;;;;;;;;;;5113633;28;20194;-65
2023/01/30 04:33:36;;;;;;;28.55;20.05;;;;;;;;;;5113831;28;20195;-64
2023/01/30 04:36:04;;;;;;;28.73;18.58;;;;;;;;;;5113911;28;20286;-65
2023/01/30 04:38:32;;;;;;;28.95;19.25;;;;;;;;;;5113861;28;20197;-65
2023/01/30 04:40:59;;;;;;;29.75;18.48;;;;;;;;;;5113860;28;20197;-65
2023/01/30 04:43:28;;;;;;;24.85;15.75;;;;;;;;;;5113746;28;20219;-64
2023/01/30 04:45:56;;;;;;;31.77;18.15;;;;;;;;;;5113479;28;20192;-65
2023/01/30 04:48:23;;;;;;;20.65;15.35;;;;;;;;;;5113691;28;20196;-64
2023/01/30 04:50:51;;;;;;;28.27;17.67;;;;;;;;;;5113801;28;20573;-64
2023/01/30 04:53:19;;;;;;;24.50;17.13;;;;;;;;;;5113516;28;20203;-64
2023/01/30 04:55:46;;;;;;;25.20;14.30;;;;;;;;;;5125677;28;20196;-64
2023/01/30 04:58:13;;;;;;;21.42;14.52;;;;;;;;;;5133958;28;20674;-64
2023/01/30 05:00:42;;;;;;;24.15;17.52;;;;;;;;;;5133773;28;20199;-65
2023/01/30 05:03:09;;;;;;;27.27;19.00;;;;;;;;;;5133653;28;20214;-65
2023/01/30 05:05:37;;;;;;;28.02;17.63;;;;;;;;;;5134099;28;20577;-67
2023/01/30 05:08:04;;;;;;;31.55;17.25;;;;;;;;;;5134097;28;20191;-65
2023/01/30 05:10:31;;;;;;;27.13;17.65;;;;;;;;;;5133186;28;20196;-65
2023/01/30 05:13:02;;;;;;;24.60;14.88;;;;;;;;;;5133592;28;20283;-66
2023/01/30 05:15:29;;;;;;;22.50;15.15;;;;;;;;;;5133893;28;20194;-64
2023/01/30 05:17:58;;;;;;;23.17;15.48;;;;;;;;;;5133455;28;20655;-65
2023/01/30 05:20:25;;;;;;;27.98;18.50;;;;;;;;;;5136238;27;20201;-64
2023/01/30 05:22:53;;;;;;;26.58;16.40;;;;;;;;;;5137676;27;20213;-65
2023/01/30 05:25:20;;;;;;;27.70;16.58;;;;;;;;;;5137697;27;20205;-65
2023/01/30 05:27:47;;;;;;;21.90;13.57;;;;;;;;;;5137903;27;20200;-65
2023/01/30 05:30:14;;;;;;;22.38;15.05;;;;;;;;;;5137325;27;20670;-65
2023/01/30 05:32:41;;;;;;;20.83;13.40;;;;;;;;;;5137428;27;20515;-64
2023/01/30 05:35:11;;;;;;;22.98;15.48;;;;;;;;;;5137223;27;20194;-65
2023/01/30 05:37:38;;;;;;;23.83;16.27;;;;;;;;;;5137092;27;20203;-65
2023/01/30 05:40:06;;;;;;;23.10;14.45;;;;;;;;;;5136962;27;20661;-65
2023/01/30 05:42:33;;;;;;;19.80;12.57;;;;;;;;;;5136783;27;20224;-65
2023/01/30 05:45:00;;;;;;;23.88;14.50;;;;;;;;;;5137346;27;20196;-66
2023/01/30 05:47:27;;;;;;;23.40;14.30;;;;;;;;;;5137281;27;20201;-66
2023/01/30 05:49:55;;;;;;;21.55;14.68;;;;;;;;;;5137210;27;20205;-67
2023/01/30 05:52:23;;;;;;;25.35;16.35;;;;;;;;;;5137154;27;20293;-66
2023/01/30 05:54:50;;;;;;;24.25;14.73;;;;;;;;;;5136934;27;20192;-66
2023/01/30 05:57:17;;;;;;;26.20;15.93;;;;;;;;;;5136934;27;20252;-65
2023/01/30 05:59:45;;;;;;;24.33;12.95;;;;;;;;;;5136985;27;20198;-65
2023/01/30 06:02:12;;;;;;;23.65;16.42;;;;;;;;;;5137111;27;20226;-65
2023/01/30 06:04:39;;;;;;;20.88;14.13;;;;;;;;;;5136575;27;20731;-65
2023/01/30 06:07:06;;;;;;;23.95;15.70;;;;;;;;;;5137003;27;20194;-64
2023/01/30 06:09:35;;;;;;;25.90;16.05;;;;;;;;;;5136862;27;20199;-65
2023/01/30 06:12:02;;;;;;;17.10;11.30;;;;;;;;;;5136759;27;20556;-65
2023/01/30 06:14:29;;;;;;;25.17;17.15;;;;;;;;;;5136573;27;20195;-65
2023/01/30 06:17:01;;;;;;;31.95;17.27;;;;;;;;;;5136894;27;20202;-66
2023/01/30 06:19:28;;;;;;;28.13;16.50;;;;;;;;;;5136361;27;20651;-65
2023/01/30 06:21:55;;;;;;;25.92;15.32;;;;;;;;;;5136677;27;20219;-65
2023/01/30 06:24:23;;;;;;;23.88;15.13;;;;;;;;;;5136176;27;20196;-66
2023/01/30 06:26:51;;;;;;;24.77;16.98;;;;;;;;;;5136339;27;20200;-66
2023/01/30 06:29:18;;;;;;;21.27;12.13;;;;;;;;;;5136126;27;20672;-65
2023/01/30 06:31:46;;;;;;;13.07;6.88;;;;;;;;;;5135837;27;20200;-65
2023/01/30 06:34:13;;;;;;;10.75;6.68;;;;;;;;;;5136430;27;20551;-66
2023/01/30 06:36:40;;;;;;;8.02;5.97;;;;;;;;;;5136375;27;20199;-66
2023/01/30 06:39:07;;;;;;;9.10;3.88;;;;;;;;;;5136370;27;20195;-66
2023/01/30 06:41:34;;;;;;;9.57;4.40;;;;;;;;;;5136438;27;20197;-66
2023/01/30 06:44:03;;;;;;;8.20;2.95;;;;;;;;;;5136147;27;20310;-66
2023/01/30 06:46:30;;;;;;;16.08;3.47;;;;;;;;;;5136549;27;20192;-66
2023/01/30 06:48:57;;;;;;;5.65;3.78;;;;;;;;;;5136213;27;20202;-66
2023/01/30 06:51:26;;;;;;;6.70;2.50;;;;;;;;;;5136046;27;20200;-65
2023/01/30 06:53:53;;;;;;;6.60;3.30;;;;;;;;;;5135686;27;20214;-65
2023/01/30 06:56:21;;;;;;;6.18;3.50;;;;;;;;;;5135771;27;20254;-66
2023/01/30 06:58:48;;;;;;;5.53;3.10;;;;;;;;;;5136154;27;20256;-66
2023/01/30 07:01:17;;;;;;;14.88;3.20;;;;;;;;;;5135902;27;20194;-67
2023/01/30 07:03:44;;;;;;;11.70;3.60;;;;;;;;;;5136096;27;20314;-67
2023/01/30 07:06:12;;;;;;;9.38;3.05;;;;;;;;;;5135426;27;20202;-67
2023/01/30 07:08:39;;;;;;;15.77;3.80;;;;;;;;;;5135390;27;20199;-68
2023/01/30 07:11:07;;;;;;;19.85;4.35;;;;;;;;;;5136073;27;20197;-67
2023/01/30 07:13:34;;;;;;;17.20;4.15;;;;;;;;;;5135649;27;20205;-68
2023/01/30 07:16:01;;;;;;;13.23;4.00;;;;;;;;;;5136195;27;20189;-67
2023/01/30 07:18:30;;;;;;;7.93;3.33;;;;;;;;;;5135624;27;20658;-67
2023/01/30 07:20:57;;;;;;;11.30;4.18;;;;;;;;;;5135455;27;20199;-67
2023/01/30 07:23:24;;;;;;;17.75;4.18;;;;;;;;;;5135382;27;20214;-67
2023/01/30 07:25:51;;;;;;;19.90;4.30;;;;;;;;;;5135430;27;20556;-67
2023/01/30 07:28:19;;;;;;;12.65;4.40;;;;;;;;;;5135692;27;20290;-67
2023/01/30 07:30:46;;;;;;;9.00;3.33;;;;;;;;;;5135191;27;20195;-67
2023/01/30 07:33:13;;;;;;;12.43;3.28;;;;;;;;;;5135272;27;20614;-66
2023/01/30 07:35:42;;;;;;;14.20;4.57;;;;;;;;;;5134807;27;20664;-67
2023/01/30 07:38:09;;;;;;;12.55;3.42;;;;;;;;;;5135209;27;20290;-65
2023/01/30 07:40:36;;;;;;;10.63;4.40;;;;;;;;;;5134781;27;20653;-66
2023/01/30 07:43:04;;;;;;;9.75;4.25;;;;;;;;;;5134951;27;20223;-67
2023/01/30 07:45:35;;;;;;;7.63;4.65;;;;;;;;;;5134761;27;20753;-67
2023/01/30 07:48:02;;;;;;;9.35;4.05;;;;;;;;;;5135076;27;20198;-67
2023/01/30 07:50:29;;;;;;;16.98;5.20;;;;;;;;;;5135044;27;20678;-66
2023/01/30 07:52:58;;;;;;;7.20;3.00;;;;;;;;;;5135251;27;20199;-67
2023/01/30 07:55:25;;;;;;;12.43;4.18;;;;;;;;;;5134517;27;20195;-66
2023/01/30 07:57:52;;;;;;;16.25;5.10;;;;;;;;;;5134698;27;20225;-66
2023/01/30 08:00:20;;;;;;;11.65;4.88;;;;;;;;;;5134691;27;20199;-67
2023/01/30 08:02:47;;;;;;;9.43;3.50;;;;;;;;;;5134599;27;20222;-66
2023/01/30 08:05:14;;;;;;;14.13;3.53;;;;;;;;;;5134722;27;20549;-66
2023/01/30 08:07:41;;;;;;;12.93;4.07;;;;;;;;;;5134731;27;20297;-66
2023/01/30 08:10:11;;;;;;;8.10;2.92;;;;;;;;;;5134935;27;20284;-67
2023/01/30 08:12:38;;;;;;;10.55;2.97;;;;;;;;;;5134607;27;20196;-66
2023/01/30 08:15:06;;;;;;;15.45;4.32;;;;;;;;;;5134558;27;20199;-66
2023/01/30 08:17:33;;;;;;;15.30;2.85;;;;;;;;;;5134293;27;20252;-66
2023/01/30 08:20:01;;;;;;;8.15;2.90;;;;;;;;;;5134534;27;20197;-65
2023/01/30 08:22:28;;;;;;;11.80;4.25;;;;;;;;;;5134948;27;20196;-66
2023/01/30 08:24:56;;;;;;;11.63;3.08;;;;;;;;;;5134427;27;20194;-66
2023/01/30 08:27:24;;;;;;;15.18;3.83;;;;;;;;;;5134062;28;20664;-65
2023/01/30 08:29:51;;;;;;;13.23;3.78;;;;;;;;;;5133966;28;20195;-65
2023/01/30 08:32:18;;;;;;;10.45;3.75;;;;;;;;;;5133943;28;20205;-66
2023/01/30 08:34:46;;;;;;;23.10;3.30;;;;;;;;;;5134069;28;20203;-66
2023/01/30 08:37:13;;;;;;;17.20;4.05;;;;;;;;;;5135008;28;20616;-65
2023/01/30 08:39:40;;;;;;;12.50;3.35;;;;;;;;;;5134516;28;20193;-66
2023/01/30 08:42:07;;;;;;;14.20;4.80;;;;;;;;;;5134478;28;20218;-65
2023/01/30 08:44:36;;;;;;;18.25;4.63;;;;;;;;;;5133839;28;20247;-65
2023/01/30 08:47:03;;;;;;;21.23;3.50;;;;;;;;;;5134260;28;20217;-65
2023/01/30 08:49:30;;;;;;;10.02;3.83;;;;;;;;;;5134014;28;20225;-65
2023/01/30 08:51:58;;;;;;;10.98;3.53;;;;;;;;;;5133744;28;20206;-65
2023/01/30 08:54:25;;;;;;;15.27;3.65;;;;;;;;;;5134471;27;20209;-65
2023/01/30 08:56:52;;;;;;;16.08;4.75;;;;;;;;;;5137796;27;20261;-65
2023/01/30 08:59:19;;;;;;;8.75;2.75;;;;;;;;;;5138332;27;20234;-65
2023/01/30 09:01:48;;;;;;;7.03;2.42;;;;;;;;;;5137581;27;20188;-65
2023/01/30 09:04:15;;;;;;;12.23;4.00;;;;;;;;;;5138206;27;20655;-65
2023/01/30 09:06:42;;;;;;;10.43;3.22;;;;;;;;;;5137774;27;20198;-65
2023/01/30 09:09:09;;;;;;;18.60;3.30;;;;;;;;;;5137846;27;20195;-65
2023/01/30 09:11:36;;;;;;;19.90;4.97;;;;;;;;;;5137545;27;20663;-65
2023/01/30 09:14:03;;;;;;;13.45;3.45;;;;;;;;;;5137724;27;20655;-65
2023/01/30 09:16:31;;;;;;;11.05;2.78;;;;;;;;;;5137894;27;20189;-65
2023/01/30 09:18:59;;;;;;;7.07;3.10;;;;;;;;;;5137660;27;20660;-65
2023/01/30 09:21:31;;;;;;;16.67;3.60;;;;;;;;;;5138092;27;20195;-65
2023/01/30 09:23:58;;;;;;;15.75;3.30;;;;;;;;;;5138010;27;20570;-65
2023/01/30 09:26:26;;;;;;;11.52;3.05;;;;;;;;;;5137618;27;20664;-65
2023/01/30 09:28:59;;;;;;;4.00;3.00;;;;;;;;;;5138381;27;20285;-65
2023/01/30 09:31:26;;;;;;;16.52;3.85;;;;;;;;;;5137928;27;20260;-65
2023/01/30 09:33:53;;;;;;;23.90;3.45;;;;;;;;;;5137836;27;20206;-65
2023/01/30 09:36:22;;;;;;;12.48;2.95;;;;;;;;;;5137549;27;20195;-65
2023/01/30 09:38:49;;;;;;;12.13;3.03;;;;;;;;;;5137603;27;20194;-65
2023/01/30 09:41:32;;;;;;;18.25;4.10;;;;;;;;;;5137516;27;20285;-65
2023/01/30 09:44:05;;;;;;;14.50;3.83;;;;;;;;;;5137133;27;20222;-65
2023/01/30 09:46:41;;;;;;;12.55;3.60;;;;;;;;;;5137105;27;20185;-65
2023/01/30 09:49:15;;;;;;;22.73;3.70;;;;;;;;;;5137771;27;20259;-65
2023/01/30 09:51:51;;;;;;;12.40;3.30;;;;;;;;;;5137006;27;20183;-65
2023/01/30 09:54:21;;;;;;;16.38;3.47;;;;;;;;;;5137037;27;20182;-65
2023/01/30 09:56:51;;;;;;;5.68;2.70;;;;;;;;;;5136701;27;20229;-65
2023/01/30 09:59:22;;;;;;;16.50;4.10;;;;;;;;;;5137291;27;20188;-65
2023/01/30 10:01:52;;;;;;;18.67;4.13;;;;;;;;;;5137113;27;20202;-65
2023/01/30 10:04:22;;;;;;;28.65;4.00;;;;;;;;;;5137173;27;20225;-64
2023/01/30 10:07:02;;;;;;;12.02;3.97;;;;;;;;;;5135977;27;20182;-65
2023/01/30 10:09:34;;;;;;;9.45;4.05;;;;;;;;;;5137022;27;20190;-65
2023/01/30 10:12:04;;;;;;;18.48;3.70;;;;;;;;;;5136619;27;20184;-64
2023/01/30 10:14:39;;;;;;;15.70;3.90;;;;;;;;;;5137118;27;20262;-65
2023/01/30 10:17:14;;;;;;;9.13;3.15;;;;;;;;;;5136543;27;20274;-65
2023/01/30 10:19:55;;;;;;;9.93;4.15;;;;;;;;;;5137149;27;20304;-65
2023/01/30 10:22:32;;;;;;;6.72;2.83;;;;;;;;;;5136723;27;20187;-64
2023/01/30 10:25:04;;;;;;;12.60;4.05;;;;;;;;;;5136651;27;20214;-66
2023/01/30 10:27:33;;;;;;;11.57;3.30;;;;;;;;;;5136109;27;20204;-65
2023/01/30 10:30:01;;;;;;;6.20;3.83;;;;;;;;;;5136255;27;20200;-65
2023/01/30 10:32:31;;;;;;;9.93;3.08;;;;;;;;;;5136414;27;20203;-66
2023/01/30 10:35:01;;;;;;;23.60;4.60;;;;;;;;;;5136191;27;20696;-65
2023/01/30 10:37:31;;;;;;;14.23;3.50;;;;;;;;;;5136352;27;20198;-66
2023/01/30 10:40:03;;;;;;;17.63;4.72;;;;;;;;;;5136115;27;20679;-65
2023/01/30 10:42:35;;;;;;;15.05;3.08;;;;;;;;;;5136280;27;20184;-65
2023/01/30 10:45:07;;;;;;;14.80;5.32;;;;;;;;;;5135969;27;20214;-65
2023/01/30 10:47:40;;;;;;;17.95;5.38;;;;;;;;;;5136336;27;20274;-65
2023/01/30 10:50:14;;;;;;;17.95;4.03;;;;;;;;;;5135943;27;20193;-66
2023/01/30 10:52:45;;;;;;;19.02;3.03;;;;;;;;;;5135785;27;20224;-65
2023/01/30 10:55:15;;;;;;;10.77;3.60;;;;;;;;;;5136542;27;20198;-66
2023/01/30 10:57:50;;;;;;;19.23;4.55;;;;;;;;;;5135828;27;20691;-65
2023/01/30 11:00:22;;;;;;;18.27;4.35;;;;;;;;;;5135777;27;20180;-65
2023/01/30 11:02:57;;;;;;;12.05;3.30;;;;;;;;;;5135607;27;20182;-65
2023/01/30 11:05:26;;;;;;;17.65;4.80;;;;;;;;;;5136098;27;20555;-65
2023/01/30 11:07:54;;;;;;;17.63;3.97;;;;;;;;;;5135911;27;20223;-65
2023/01/30 11:10:22;;;;;;;15.23;4.32;;;;;;;;;;5136272;27;20191;-65
2023/01/30 11:12:53;;;;;;;13.23;3.33;;;;;;;;;;5135236;27;20198;-66
2023/01/30 11:15:23;;;;;;;9.63;3.03;;;;;;;;;;5135389;27;20243;-66
2023/01/30 11:17:51;;;;;;;15.80;3.70;;;;;;;;;;5135056;27;20233;-65
2023/01/30 11:20:19;;;;;;;18.75;3.90;;;;;;;;;;5135253;27;20206;-66
2023/01/30 11:22:47;;;;;;;9.73;3.58;;;;;;;;;;5135678;27;20526;-66
2023/01/30 11:25:18;;;;;;;18.67;4.63;;;;;;;;;;5134986;27;20228;-65
2023/01/30 11:27:52;;;;;;;14.05;3.30;;;;;;;;;;5135180;27;20649;-65
2023/01/30 11:30:20;;;;;;;11.52;3.65;;;;;;;;;;5135406;27;20287;-65
2023/01/30 11:32:49;;;;;;;12.70;4.18;;;;;;;;;;5135243;27;20206;-65
2023/01/30 11:35:23;;;;;;;10.05;2.58;;;;;;;;;;5135303;27;20556;-65
2023/01/30 11:37:52;;;;;;;14.50;4.18;;;;;;;;;;5135158;27;20277;-65
2023/01/30 11:40:30;;;;;;;12.27;4.65;;;;;;;;;;5135207;27;20268;-64
2023/01/30 11:43:04;;;;;;;6.25;2.30;;;;;;;;;;5134832;27;20198;-65
2023/01/30 11:45:35;;;;;;;16.27;3.33;;;;;;;;;;5134712;27;20214;-64
2023/01/30 11:48:05;;;;;;;7.57;3.92;;;;;;;;;;5134665;27;20179;-62
2023/01/30 11:50:33;;;;;;;17.02;2.47;;;;;;;;;;5135012;27;20199;-64
2023/01/30 11:53:02;;;;;;;11.90;3.25;;;;;;;;;;5135135;27;20199;-65
2023/01/30 11:55:34;;;;;;;14.10;3.13;;;;;;;;;;5135041;27;20222;-64
2023/01/30 11:58:03;;;;;;;9.45;3.17;;;;;;;;;;5134394;27;20227;-64
2023/01/30 12:00:38;;;;;;;12.65;3.58;;;;;;;;;;5134895;27;20195;-64
2023/01/30 12:03:06;;;;;;;11.82;3.88;;;;;;;;;;5134406;27;20186;-65
2023/01/30 12:05:34;;;;;;;9.57;3.50;;;;;;;;;;5134652;27;20223;-64
2023/01/30 12:08:12;;;;;;;16.85;3.78;;;;;;;;;;5134634;27;20230;-65
2023/01/30 12:10:43;;;;;;;11.07;3.90;;;;;;;;;;5134889;27;20271;-64
2023/01/30 12:13:16;;;;;;;12.90;3.67;;;;;;;;;;5134357;27;20188;-65
2023/01/30 12:15:44;;;;;;;5.10;2.38;;;;;;;;;;5134807;27;20181;-65
2023/01/30 12:18:14;;;;;;;8.70;3.30;;;;;;;;;;5134527;27;20192;-65
2023/01/30 12:20:46;;;;;;;15.38;3.58;;;;;;;;;;5134286;27;20196;-65
2023/01/30 12:23:16;;;;;;;7.65;3.22;;;;;;;;;;5134640;27;20192;-64
2023/01/30 12:25:49;;;;;;;10.77;3.40;;;;;;;;;;5134504;27;20619;-64
2023/01/30 12:28:21;;;;;;;12.70;3.33;;;;;;;;;;5134134;27;20192;-65
2023/01/30 12:30:50;;;;;;;15.70;3.67;;;;;;;;;;5133971;28;20332;-65
2023/01/30 12:33:18;;;;;;;8.48;3.00;;;;;;;;;;5134648;28;20195;-65
2023/01/30 12:35:53;;;;;;;9.52;2.63;;;;;;;;;;5134082;28;20657;-65
2023/01/30 12:38:27;;;;;;;14.05;4.40;;;;;;;;;;5134234;28;20183;-65
2023/01/30 12:41:02;;;;;;;8.85;3.08;;;;;;;;;;5134765;28;20267;-65
2023/01/30 12:43:47;;;;;;;14.50;3.92;;;;;;;;;;5134111;28;20660;-65
2023/01/30 12:46:25;;;;;;;21.48;3.47;;;;;;;;;;5134073;28;20223;-64
2023/01/30 12:48:59;;;;;;;12.85;3.25;;;;;;;;;;5134610;28;20182;-65
2023/01/30 12:51:35;;;;;;;15.10;3.25;;;;;;;;;;5134041;28;20625;-65
2023/01/30 12:54:07;;;;;;;13.43;2.70;;;;;;;;;;5133886;28;20190;-65
2023/01/30 12:56:41;;;;;;;19.48;3.13;;;;;;;;;;5134180;28;20220;-65
2023/01/30 12:59:11;;;;;;;10.60;3.33;;;;;;;;;;5134165;28;20201;-65
2023/01/30 13:01:43;;;;;;;19.63;4.10;;;;;;;;;;5133949;28;20202;-65
2023/01/30 13:04:14;;;;;;;17.00;4.38;;;;;;;;;;5134291;28;20207;-65
2023/01/30 13:06:51;;;;;;;12.52;3.88;;;;;;;;;;5133881;28;20271;-65
2023/01/30 13:09:31;;;;;;;8.05;3.00;;;;;;;;;;5134326;28;20292;-65
2023/01/30 13:12:04;;;;;;;9.70;3.05;;;;;;;;;;5134278;28;20195;-65
2023/01/30 13:14:34;;;;;;;12.15;4.22;;;;;;;;;;5134159;28;20548;-65
2023/01/30 13:17:06;;;;;;;16.38;3.53;;;;;;;;;;5133784;28;20181;-64
2023/01/30 13:19:39;;;;;;;8.55;2.83;;;;;;;;;;5134070;28;20198;-65
2023/01/30 13:22:08;;;;;;;20.42;4.32;;;;;;;;;;5134314;28;20271;-65
2023/01/30 13:24:44;;;;;;;29.02;3.72;;;;;;;;;;5133976;28;20230;-65
2023/01/30 13:27:16;;;;;;;18.33;4.28;;;;;;;;;;5134156;28;20659;-65
2023/01/30 13:29:44;;;;;;;14.02;3.40;;;;;;;;;;5134306;28;20188;-65
2023/01/30 13:32:15;;;;;;;10.73;3.85;;;;;;;;;;5134527;28;20279;-65
2023/01/30 13:34:45;;;;;;;11.48;2.72;;;;;;;;;;5133490;28;20641;-65
2023/01/30 13:37:13;;;;;;;17.15;3.60;;;;;;;;;;5134229;28;20200;-65
2023/01/30 13:39:44;;;;;;;7.30;2.70;;;;;;;;;;5133776;28;20196;-64
2023/01/30 13:42:15;;;;;;;11.73;3.38;;;;;;;;;;5136903;27;20272;-63
2023/01/30 13:44:43;;;;;;;7.40;3.17;;;;;;;;;;5136917;27;20672;-64
2023/01/30 13:47:15;;;;;;;10.82;3.08;;;;;;;;;;5137428;27;20219;-64
2023/01/30 13:49:46;;;;;;;13.75;4.10;;;;;;;;;;5135649;27;20260;-64
2023/01/30 13:52:17;;;;;;;18.05;3.53;;;;;;;;;;5136674;27;20256;-67
2023/01/30 13:54:51;;;;;;;9.32;3.22;;;;;;;;;;5136860;27;20192;-64
2023/01/30 13:57:26;;;;;;;10.60;3.50;;;;;;;;;;5126817;27;20319;-63
2023/01/30 14:00:09;;;;;;;20.67;4.50;;;;;;;;;;5116181;28;20207;-65
2023/01/30 14:02:37;;;;;;;2.42;1.83;;;;;;;;;;5115202;28;20186;-65
2023/01/30 14:05:04;;;;;;;12.65;2.70;;;;;;;;;;5114916;28;20315;-65
2023/01/30 14:07:32;;;;;;;3.83;1.88;;;;;;;;;;5115934;28;20286;-65
2023/01/30 14:10:05;;;;;;;3.75;2.00;;;;;;;;;;5116036;28;20204;-65
2023/01/30 14:12:36;;;;;;;17.30;2.67;;;;;;;;;;5114452;28;20195;-65
2023/01/30 14:15:04;;;;;;;4.70;3.05;;;;;;;;;;5115673;28;20198;-65
2023/01/30 14:17:32;;;;;;;15.70;4.82;;;;;;;;;;5115948;28;20660;-65
2023/01/30 14:20:00;;;;;;;6.32;2.92;;;;;;;;;;5115675;28;20196;-65
2023/01/30 14:22:34;;;;;;;18.40;2.53;;;;;;;;;;5115999;28;20210;-65
2023/01/30 14:25:20;;;;;;;8.57;2.80;;;;;;;;;;5116379;28;20208;-65
2023/01/30 14:27:51;;;;;;;8.63;2.90;;;;;;;;;;5116183;28;20230;-65
2023/01/30 14:30:35;;;;;;;6.45;2.38;;;;;;;;;;5115880;28;20193;-66
2023/01/30 14:33:03;;;;;;;7.38;2.92;;;;;;;;;;5115599;28;20200;-64
2023/01/30 14:35:31;;;;;;;12.82;2.63;;;;;;;;;;5115386;28;20644;-64
2023/01/30 14:38:09;;;;;;;11.63;3.33;;;;;;;;;;5115558;28;20249;-64
2023/01/30 14:40:38;;;;;;;6.47;2.72;;;;;;;;;;5115552;28;20176;-63
2023/01/30 14:43:23;;;;;;;12.00;2.97;;;;;;;;;;5115172;28;20188;-64
2023/01/30 14:45:53;;;;;;;9.68;3.85;;;;;;;;;;5115337;28;20306;-64
2023/01/30 14:48:28;;;;;;;10.70;2.78;;;;;;;;;;5115353;28;20197;-65